sensor_id;sensor_type;location;lat;lon;timestamp;pressure;altitude;pressure_sealevel;temperature;humidity
69796;BME280;57073;45.650;9.612;2023-03-22T00:01:55;99188.19;;;11.64;51.32
69796;BME280;57073;45.650;9.612;2023-03-22T00:06:56;99186.63;;;11.68;50.21
69796;BME280;57073;45.650;9.612;2023-03-22T00:11:56;99187.28;;;11.58;50.69
69796;BME280;57073;45.650;9.612;2023-03-22T00:34:47;99172.06;;;11.06;52.62
69796;BME280;57073;45.650;9.612;2023-03-22T00:39:47;99180.06;;;11.01;53.25
69796;BME280;57073;45.650;9.612;2023-03-22T00:44:47;99175.41;;;10.96;53.47
69796;BME280;57073;45.650;9.612;2023-03-22T00:49:48;99169.94;;;10.91;53.51
69796;BME280;57073;45.650;9.612;2023-03-22T00:54:48;99168.53;;;10.89;53.34
69796;BME280;57073;45.650;9.612;2023-03-22T01:29:33;99151.94;;;10.80;54.02
69796;BME280;57073;45.650;9.612;2023-03-22T01:34:34;99147.91;;;10.83;53.58
69796;BME280;57073;45.650;9.612;2023-03-22T01:39:34;99154.22;;;10.88;53.89
69796;BME280;57073;45.650;9.612;2023-03-22T01:44:35;99154.13;;;10.83;53.61
69796;BME280;57073;45.650;9.612;2023-03-22T01:49:36;99157.66;;;10.84;53.82
69796;BME280;57073;45.650;9.612;2023-03-22T01:54:46;99154.97;;;11.00;52.75
69796;BME280;57073;45.650;9.612;2023-03-22T01:59:47;99152.28;;;11.00;52.03
69796;BME280;57073;45.650;9.612;2023-03-22T02:04:49;99152.75;;;10.97;53.04
69796;BME280;57073;45.650;9.612;2023-03-22T02:09:51;99154.28;;;11.05;52.20
69796;BME280;57073;45.650;9.612;2023-03-22T02:51:27;99152.47;;;11.11;52.34
69796;BME280;57073;45.650;9.612;2023-03-22T02:56:35;99141.31;;;10.90;52.76
69796;BME280;57073;45.650;9.612;2023-03-22T03:01:42;99150.44;;;10.72;53.90
69796;BME280;57073;45.650;9.612;2023-03-22T03:06:46;99150.59;;;10.66;54.30
69796;BME280;57073;45.650;9.612;2023-03-22T03:11:51;99148.31;;;10.74;53.15
69796;BME280;57073;45.650;9.612;2023-03-22T03:22:36;99140.50;;;10.90;53.06
69796;BME280;57073;45.650;9.612;2023-03-22T03:27:47;99153.97;;;10.90;52.25
69796;BME280;57073;45.650;9.612;2023-03-22T03:32:55;99160.44;;;10.89;52.50
69796;BME280;57073;45.650;9.612;2023-03-22T03:38:02;99149.34;;;10.85;52.40
69796;BME280;57073;45.650;9.612;2023-03-22T03:43:08;99155.53;;;10.86;52.06
69796;BME280;57073;45.650;9.612;2023-03-22T03:48:18;99160.78;;;10.64;53.12
69796;BME280;57073;45.650;9.612;2023-03-22T03:53:19;99153.13;;;10.72;51.82
69796;BME280;57073;45.650;9.612;2023-03-22T03:58:19;99161.69;;;10.40;53.38
69796;BME280;57073;45.650;9.612;2023-03-22T04:03:20;99154.91;;;10.38;54.46
69796;BME280;57073;45.650;9.612;2023-03-22T04:08:20;99162.66;;;10.11;55.17
69796;BME280;57073;45.650;9.612;2023-03-22T04:13:20;99157.00;;;10.24;54.73
69796;BME280;57073;45.650;9.612;2023-03-22T04:18:21;99161.00;;;9.98;54.99
69796;BME280;57073;45.650;9.612;2023-03-22T04:23:21;99160.44;;;9.96;55.48
69796;BME280;57073;45.650;9.612;2023-03-22T04:28:25;99168.28;;;10.09;54.54
69796;BME280;57073;45.650;9.612;2023-03-22T04:33:25;99167.44;;;10.09;54.79
69796;BME280;57073;45.650;9.612;2023-03-22T04:38:26;99157.94;;;10.18;53.87
69796;BME280;57073;45.650;9.612;2023-03-22T04:43:26;99159.97;;;10.11;54.20
69796;BME280;57073;45.650;9.612;2023-03-22T04:48:27;99159.84;;;10.06;54.61
69796;BME280;57073;45.650;9.612;2023-03-22T04:53:29;99158.31;;;10.10;54.51
69796;BME280;57073;45.650;9.612;2023-03-22T04:58:29;99156.13;;;9.95;54.83
69796;BME280;57073;45.650;9.612;2023-03-22T05:03:30;99158.94;;;9.76;54.67
69796;BME280;57073;45.650;9.612;2023-03-22T05:08:30;99169.22;;;9.56;55.32
69796;BME280;57073;45.650;9.612;2023-03-22T05:13:31;99170.63;;;9.70;54.96
69796;BME280;57073;45.650;9.612;2023-03-22T05:18:31;99167.59;;;9.78;54.73
69796;BME280;57073;45.650;9.612;2023-03-22T05:23:32;99169.13;;;9.86;54.58
69796;BME280;57073;45.650;9.612;2023-03-22T05:28:33;99169.94;;;9.87;54.56
69796;BME280;57073;45.650;9.612;2023-03-22T05:33:33;99183.41;;;9.87;54.95
69796;BME280;57073;45.650;9.612;2023-03-22T05:38:33;99187.25;;;9.91;54.13
69796;BME280;57073;45.650;9.612;2023-03-22T05:43:34;99189.50;;;9.82;54.89
69796;BME280;57073;45.650;9.612;2023-03-22T05:48:35;99197.69;;;9.75;54.44
69796;BME280;57073;45.650;9.612;2023-03-22T05:53:35;99192.88;;;9.77;54.58
69796;BME280;57073;45.650;9.612;2023-03-22T05:58:36;99197.22;;;10.02;54.76
69796;BME280;57073;45.650;9.612;2023-03-22T06:03:37;99198.28;;;10.13;53.72
69796;BME280;57073;45.650;9.612;2023-03-22T06:08:38;99210.44;;;10.15;53.72
69796;BME280;57073;45.650;9.612;2023-03-22T06:13:38;99210.78;;;10.19;54.10
69796;BME280;57073;45.650;9.612;2023-03-22T06:18:39;99212.63;;;10.30;53.81
69796;BME280;57073;45.650;9.612;2023-03-22T06:23:39;99217.19;;;10.53;52.83
69796;BME280;57073;45.650;9.612;2023-03-22T06:28:40;99225.50;;;10.64;53.04
69796;BME280;57073;45.650;9.612;2023-03-22T06:33:40;99220.50;;;10.84;51.96
69796;BME280;57073;45.650;9.612;2023-03-22T06:38:41;99231.31;;;11.13;51.47
69796;BME280;57073;45.650;9.612;2023-03-22T06:43:41;99235.13;;;11.46;50.93
69796;BME280;57073;45.650;9.612;2023-03-22T06:48:41;99228.69;;;11.81;50.53
69796;BME280;57073;45.650;9.612;2023-03-22T06:53:42;99234.84;;;11.76;51.35
69796;BME280;57073;45.650;9.612;2023-03-22T06:58:42;99230.09;;;12.22;50.29
69796;BME280;57073;45.650;9.612;2023-03-22T07:03:43;99235.69;;;12.55;49.53
69796;BME280;57073;45.650;9.612;2023-03-22T07:08:43;99228.47;;;13.09;49.26
69796;BME280;57073;45.650;9.612;2023-03-22T07:13:43;99234.97;;;13.36;48.50
69796;BME280;57073;45.650;9.612;2023-03-22T07:18:44;99229.00;;;13.66;47.13
69796;BME280;57073;45.650;9.612;2023-03-22T07:23:44;99236.03;;;13.94;46.25
69796;BME280;57073;45.650;9.612;2023-03-22T07:28:45;99234.53;;;14.14;45.48
69796;BME280;57073;45.650;9.612;2023-03-22T07:33:45;99237.50;;;13.80;45.81
69796;BME280;57073;45.650;9.612;2023-03-22T07:38:47;99237.72;;;14.53;46.58
69796;BME280;57073;45.650;9.612;2023-03-22T07:43:47;99232.19;;;14.91;44.99
69796;BME280;57073;45.650;9.612;2023-03-22T07:48:47;99242.47;;;14.78;43.32
69796;BME280;57073;45.650;9.612;2023-03-22T07:53:48;99248.84;;;15.30;43.26
69796;BME280;57073;45.650;9.612;2023-03-22T07:58:48;99246.16;;;15.61;43.05
69796;BME280;57073;45.650;9.612;2023-03-22T08:03:49;99253.53;;;15.96;43.62
69796;BME280;57073;45.650;9.612;2023-03-22T08:08:50;99262.50;;;15.97;42.82
69796;BME280;57073;45.650;9.612;2023-03-22T08:13:50;99269.03;;;16.22;42.58
69796;BME280;57073;45.650;9.612;2023-03-22T08:18:50;99274.06;;;16.64;42.30
69796;BME280;57073;45.650;9.612;2023-03-22T08:23:51;99269.59;;;16.99;41.67
69796;BME280;57073;45.650;9.612;2023-03-22T08:28:52;99273.91;;;17.10;40.23
69796;BME280;57073;45.650;9.612;2023-03-22T08:33:52;99277.38;;;17.21;40.07
69796;BME280;57073;45.650;9.612;2023-03-22T08:38:52;99276.31;;;17.17;39.88
69796;BME280;57073;45.650;9.612;2023-03-22T08:43:53;99274.69;;;17.61;40.15
69796;BME280;57073;45.650;9.612;2023-03-22T08:48:53;99264.81;;;17.70;40.28
69796;BME280;57073;45.650;9.612;2023-03-22T08:53:54;99275.41;;;17.77;40.20
69796;BME280;57073;45.650;9.612;2023-03-22T08:58:57;99287.56;;;17.90;39.74
69796;BME280;57073;45.650;9.612;2023-03-22T09:03:58;99268.38;;;17.21;39.33
69796;BME280;57073;45.650;9.612;2023-03-22T09:08:59;99267.72;;;17.39;39.25
69796;BME280;57073;45.650;9.612;2023-03-22T09:14:00;99266.72;;;17.70;40.65
69796;BME280;57073;45.650;9.612;2023-03-22T09:19:00;99254.75;;;18.00;39.86
69796;BME280;57073;45.650;9.612;2023-03-22T09:24:01;99259.19;;;18.20;40.50
69796;BME280;57073;45.650;9.612;2023-03-22T09:29:01;99255.03;;;18.28;39.89
69796;BME280;57073;45.650;9.612;2023-03-22T09:34:02;99250.78;;;18.16;39.76
69796;BME280;57073;45.650;9.612;2023-03-22T09:39:02;99245.41;;;18.06;39.71
69796;BME280;57073;45.650;9.612;2023-03-22T09:44:37;99244.41;;;17.97;40.48
69796;BME280;57073;45.650;9.612;2023-03-22T09:49:41;99237.56;;;17.99;40.21
69796;BME280;57073;45.650;9.612;2023-03-22T09:54:45;99235.53;;;18.10;39.07
69796;BME280;57073;45.650;9.612;2023-03-22T10:05:02;99243.09;;;18.18;37.86
69796;BME280;57073;45.650;9.612;2023-03-22T10:10:13;99242.84;;;18.44;38.96
69796;BME280;57073;45.650;9.612;2023-03-22T10:15:23;99245.38;;;18.35;36.86
69796;BME280;57073;45.650;9.612;2023-03-22T10:25:36;99238.75;;;18.17;37.36
69796;BME280;57073;45.650;9.612;2023-03-22T10:30:39;99244.38;;;18.26;38.47
69796;BME280;57073;45.650;9.612;2023-03-22T10:35:40;99232.81;;;18.10;38.12
69796;BME280;57073;45.650;9.612;2023-03-22T10:40:43;99228.78;;;18.02;37.93
69796;BME280;57073;45.650;9.612;2023-03-22T10:45:45;99217.56;;;18.09;38.61
69796;BME280;57073;45.650;9.612;2023-03-22T10:50:46;99222.16;;;17.84;38.15
69796;BME280;57073;45.650;9.612;2023-03-22T10:55:46;99214.47;;;17.86;38.62
69796;BME280;57073;45.650;9.612;2023-03-22T11:00:49;99217.59;;;17.75;38.84
69796;BME280;57073;45.650;9.612;2023-03-22T11:05:59;99222.38;;;17.88;38.33
69796;BME280;57073;45.650;9.612;2023-03-22T11:11:04;99215.03;;;17.89;38.19
69796;BME280;57073;45.650;9.612;2023-03-22T11:16:07;99198.72;;;17.83;39.12
69796;BME280;57073;45.650;9.612;2023-03-22T11:21:10;99201.69;;;17.87;38.56
69796;BME280;57073;45.650;9.612;2023-03-22T11:26:13;99198.34;;;17.90;38.35
69796;BME280;57073;45.650;9.612;2023-03-22T11:31:16;99194.75;;;17.71;37.60
69796;BME280;57073;45.650;9.612;2023-03-22T11:36:17;99185.16;;;17.73;37.92
69796;BME280;57073;45.650;9.612;2023-03-22T11:41:26;99173.69;;;17.76;38.33
69796;BME280;57073;45.650;9.612;2023-03-22T11:46:28;99170.47;;;17.69;37.05
69796;BME280;57073;45.650;9.612;2023-03-22T11:51:31;99166.28;;;17.82;37.28
69796;BME280;57073;45.650;9.612;2023-03-22T11:56:39;99159.38;;;17.90;37.31
69796;BME280;57073;45.650;9.612;2023-03-22T12:01:46;99156.13;;;17.87;36.53
69796;BME280;57073;45.650;9.612;2023-03-22T12:06:51;99147.88;;;17.93;37.46
69796;BME280;57073;45.650;9.612;2023-03-22T12:11:55;99143.81;;;17.90;36.76
69796;BME280;57073;45.650;9.612;2023-03-22T12:17:10;99145.91;;;17.74;37.07
69796;BME280;57073;45.650;9.612;2023-03-22T12:22:16;99136.03;;;17.78;36.38
69796;BME280;57073;45.650;9.612;2023-03-22T12:27:25;99122.41;;;17.78;35.38
69796;BME280;57073;45.650;9.612;2023-03-22T12:32:33;99113.56;;;17.86;37.01
69796;BME280;57073;45.650;9.612;2023-03-22T12:37:34;99115.47;;;17.62;34.96
69796;BME280;57073;45.650;9.612;2023-03-22T12:48:06;99098.22;;;17.96;36.45
69796;BME280;57073;45.650;9.612;2023-03-22T12:53:16;99092.16;;;17.99;36.99
69796;BME280;57073;45.650;9.612;2023-03-22T12:58:20;99083.22;;;17.93;36.16
69796;BME280;57073;45.650;9.612;2023-03-22T13:03:27;99077.75;;;17.93;36.54
69796;BME280;57073;45.650;9.612;2023-03-22T13:14:01;99065.53;;;17.91;36.72
69796;BME280;57073;45.650;9.612;2023-03-22T13:19:02;99064.66;;;17.95;37.09
69796;BME280;57073;45.650;9.612;2023-03-22T13:34:36;99043.59;;;17.77;36.30
69796;BME280;57073;45.650;9.612;2023-03-22T13:39:37;99039.63;;;17.88;36.51
69796;BME280;57073;45.650;9.612;2023-03-22T13:44:39;99041.66;;;18.01;37.15
69796;BME280;57073;45.650;9.612;2023-03-22T13:49:48;99028.53;;;18.03;36.89
69796;BME280;57073;45.650;9.612;2023-03-22T13:54:54;99034.28;;;18.02;36.39
69796;BME280;57073;45.650;9.612;2023-03-22T13:59:59;99018.50;;;17.99;36.35
69796;BME280;57073;45.650;9.612;2023-03-22T14:10:17;99022.66;;;18.15;36.48
69796;BME280;57073;45.650;9.612;2023-03-22T14:15:26;99023.38;;;18.02;36.41
69796;BME280;57073;45.650;9.612;2023-03-22T14:20:31;99022.13;;;17.94;36.03
69796;BME280;57073;45.650;9.612;2023-03-22T14:25:35;99017.19;;;18.15;36.94
69796;BME280;57073;45.650;9.612;2023-03-22T14:30:37;99007.97;;;17.92;37.37
69796;BME280;57073;45.650;9.612;2023-03-22T14:35:40;99003.63;;;17.67;37.53
69796;BME280;57073;45.650;9.612;2023-03-22T14:40:41;99003.91;;;17.65;37.59
69796;BME280;57073;45.650;9.612;2023-03-22T14:45:42;98990.19;;;17.46;35.85
69796;BME280;57073;45.650;9.612;2023-03-22T14:50:44;98994.84;;;17.94;35.54
69796;BME280;57073;45.650;9.612;2023-03-22T14:55:47;98984.16;;;17.98;35.59
69796;BME280;57073;45.650;9.612;2023-03-22T15:00:49;98987.06;;;17.82;36.15
69796;BME280;57073;45.650;9.612;2023-03-22T15:05:50;98979.91;;;17.86;36.38
69796;BME280;57073;45.650;9.612;2023-03-22T15:10:55;98977.13;;;17.92;36.35
69796;BME280;57073;45.650;9.612;2023-03-22T15:15:56;98966.22;;;17.92;35.37
69796;BME280;57073;45.650;9.612;2023-03-22T15:20:58;98969.00;;;17.86;35.80
69796;BME280;57073;45.650;9.612;2023-03-22T15:26:07;98966.06;;;17.83;35.50
69796;BME280;57073;45.650;9.612;2023-03-22T15:31:25;98957.28;;;17.67;35.73
69796;BME280;57073;45.650;9.612;2023-03-22T15:36:31;98969.91;;;17.82;34.83
69796;BME280;57073;45.650;9.612;2023-03-22T15:41:36;98950.31;;;17.80;35.07
69796;BME280;57073;45.650;9.612;2023-03-22T15:52:07;98958.09;;;17.86;35.76
69796;BME280;57073;45.650;9.612;2023-03-22T16:02:35;98957.28;;;17.67;35.08
69796;BME280;57073;45.650;9.612;2023-03-22T16:07:36;98961.22;;;17.80;35.70
69796;BME280;57073;45.650;9.612;2023-03-22T16:12:37;98967.06;;;17.68;35.98
69796;BME280;57073;45.650;9.612;2023-03-22T16:17:37;98968.66;;;17.74;35.83
69796;BME280;57073;45.650;9.612;2023-03-22T16:22:38;98975.94;;;17.79;35.54
69796;BME280;57073;45.650;9.612;2023-03-22T16:27:38;98975.13;;;17.78;35.45
69796;BME280;57073;45.650;9.612;2023-03-22T16:32:39;98973.13;;;17.65;34.89
69796;BME280;57073;45.650;9.612;2023-03-22T16:37:39;98970.44;;;17.60;34.76
69796;BME280;57073;45.650;9.612;2023-03-22T16:42:40;98975.66;;;17.56;35.64
69796;BME280;57073;45.650;9.612;2023-03-22T16:47:40;98979.97;;;17.57;35.32
69796;BME280;57073;45.650;9.612;2023-03-22T16:52:41;98984.63;;;17.57;35.16
69796;BME280;57073;45.650;9.612;2023-03-22T16:57:42;98979.41;;;17.36;34.40
69796;BME280;57073;45.650;9.612;2023-03-22T17:02:42;98982.44;;;17.35;34.91
69796;BME280;57073;45.650;9.612;2023-03-22T17:07:43;98996.41;;;17.28;35.17
69796;BME280;57073;45.650;9.612;2023-03-22T17:12:44;98997.03;;;17.20;35.19
69796;BME280;57073;45.650;9.612;2023-03-22T17:17:45;98995.09;;;16.96;34.56
69796;BME280;57073;45.650;9.612;2023-03-22T17:22:47;98994.78;;;16.98;34.96
69796;BME280;57073;45.650;9.612;2023-03-22T17:27:48;99002.06;;;17.07;35.22
69796;BME280;57073;45.650;9.612;2023-03-22T17:32:49;99013.78;;;17.03;35.40
69796;BME280;57073;45.650;9.612;2023-03-22T17:37:49;99010.88;;;16.94;35.17
69796;BME280;57073;45.650;9.612;2023-03-22T17:42:53;99006.66;;;16.78;35.16
69796;BME280;57073;45.650;9.612;2023-03-22T17:47:53;99021.06;;;16.83;35.68
69796;BME280;57073;45.650;9.612;2023-03-22T17:52:54;99020.28;;;16.78;35.74
69796;BME280;57073;45.650;9.612;2023-03-22T17:57:55;99027.34;;;16.79;35.41
69796;BME280;57073;45.650;9.612;2023-03-22T18:02:55;99036.53;;;16.88;35.72
69796;BME280;57073;45.650;9.612;2023-03-22T18:07:56;99027.06;;;16.80;35.56
69796;BME280;57073;45.650;9.612;2023-03-22T18:12:56;99033.06;;;16.77;35.79
69796;BME280;57073;45.650;9.612;2023-03-22T18:17:56;99050.22;;;16.78;35.89
69796;BME280;57073;45.650;9.612;2023-03-22T18:22:57;99057.53;;;16.38;36.64
69796;BME280;57073;45.650;9.612;2023-03-22T18:27:57;99061.44;;;16.21;36.53
69796;BME280;57073;45.650;9.612;2023-03-22T18:32:58;99060.94;;;16.09;36.81
69796;BME280;57073;45.650;9.612;2023-03-22T18:37:58;99070.06;;;16.39;36.68
69796;BME280;57073;45.650;9.612;2023-03-22T18:42:59;99067.34;;;16.33;36.77
69796;BME280;57073;45.650;9.612;2023-03-22T18:48:00;99075.56;;;16.23;37.38
69796;BME280;57073;45.650;9.612;2023-03-22T18:53:00;99082.69;;;16.09;37.56
69796;BME280;57073;45.650;9.612;2023-03-22T18:58:00;99094.19;;;15.90;38.75
69796;BME280;57073;45.650;9.612;2023-03-22T19:03:01;99099.09;;;15.88;38.13
69796;BME280;57073;45.650;9.612;2023-03-22T19:08:01;99112.41;;;15.80;37.99
69796;BME280;57073;45.650;9.612;2023-03-22T19:13:02;99106.22;;;15.64;38.84
69796;BME280;57073;45.650;9.612;2023-03-22T19:18:02;99110.53;;;15.54;39.26
69796;BME280;57073;45.650;9.612;2023-03-22T19:23:03;99111.38;;;15.45;40.00
69796;BME280;57073;45.650;9.612;2023-03-22T19:28:03;99113.28;;;15.24;40.41
69796;BME280;57073;45.650;9.612;2023-03-22T19:33:04;99122.00;;;15.26;40.42
69796;BME280;57073;45.650;9.612;2023-03-22T19:38:04;99126.59;;;15.20;40.58
69796;BME280;57073;45.650;9.612;2023-03-22T19:43:04;99118.75;;;15.13;40.18
69796;BME280;57073;45.650;9.612;2023-03-22T19:48:05;99121.72;;;15.07;39.92
69796;BME280;57073;45.650;9.612;2023-03-22T19:53:05;99124.69;;;15.05;40.46
69796;BME280;57073;45.650;9.612;2023-03-22T19:58:06;99128.75;;;14.92;41.18
69796;BME280;57073;45.650;9.612;2023-03-22T20:03:06;99126.00;;;14.77;41.57
69796;BME280;57073;45.650;9.612;2023-03-22T20:08:07;99130.06;;;14.64;41.80
69796;BME280;57073;45.650;9.612;2023-03-22T20:13:07;99127.22;;;14.38;43.43
69796;BME280;57073;45.650;9.612;2023-03-22T20:18:08;99127.75;;;14.25;44.03
69796;BME280;57073;45.650;9.612;2023-03-22T20:23:08;99121.75;;;14.18;44.77
69796;BME280;57073;45.650;9.612;2023-03-22T20:28:08;99129.28;;;14.05;44.75
69796;BME280;57073;45.650;9.612;2023-03-22T20:33:09;99126.81;;;13.99;44.93
69796;BME280;57073;45.650;9.612;2023-03-22T20:38:09;99132.94;;;13.84;45.34
69796;BME280;57073;45.650;9.612;2023-03-22T20:43:10;99141.59;;;13.81;45.63
69796;BME280;57073;45.650;9.612;2023-03-22T20:48:11;99143.78;;;13.84;44.88
69796;BME280;57073;45.650;9.612;2023-03-22T20:53:13;99145.34;;;13.75;45.13
69796;BME280;57073;45.650;9.612;2023-03-22T20:58:17;99154.69;;;13.94;44.18
69796;BME280;57073;45.650;9.612;2023-03-22T21:03:18;99160.56;;;13.81;44.30
69796;BME280;57073;45.650;9.612;2023-03-22T21:08:19;99154.91;;;13.88;43.83
69796;BME280;57073;45.650;9.612;2023-03-22T21:13:19;99151.34;;;13.82;43.92
69796;BME280;57073;45.650;9.612;2023-03-22T21:18:20;99157.41;;;13.57;44.12
69796;BME280;57073;45.650;9.612;2023-03-22T21:23:21;99152.47;;;13.48;43.92
69796;BME280;57073;45.650;9.612;2023-03-22T21:28:22;99159.50;;;13.44;44.92
69796;BME280;57073;45.650;9.612;2023-03-22T21:33:25;99148.59;;;13.77;43.80
69796;BME280;57073;45.650;9.612;2023-03-22T21:38:26;99152.69;;;13.79;43.47
69796;BME280;57073;45.650;9.612;2023-03-22T21:43:27;99161.34;;;13.76;43.33
69796;BME280;57073;45.650;9.612;2023-03-22T21:48:30;99154.34;;;13.43;44.26
69796;BME280;57073;45.650;9.612;2023-03-22T21:53:30;99159.88;;;13.26;44.55
69796;BME280;57073;45.650;9.612;2023-03-22T21:58:30;99156.13;;;13.00;46.18
69796;BME280;57073;45.650;9.612;2023-03-22T22:03:31;99161.03;;;13.03;45.82
69796;BME280;57073;45.650;9.612;2023-03-22T22:08:31;99159.56;;;13.22;45.01
69796;BME280;57073;45.650;9.612;2023-03-22T22:13:32;99157.69;;;13.23;44.93
69796;BME280;57073;45.650;9.612;2023-03-22T22:18:34;99160.28;;;13.13;45.00
69796;BME280;57073;45.650;9.612;2023-03-22T22:23:43;99154.63;;;13.14;44.56
69796;BME280;57073;45.650;9.612;2023-03-22T22:28:44;99156.72;;;13.07;44.75
69796;BME280;57073;45.650;9.612;2023-03-22T22:33:45;99158.94;;;13.15;44.26
69796;BME280;57073;45.650;9.612;2023-03-22T22:38:46;99149.47;;;13.13;44.05
69796;BME280;57073;45.650;9.612;2023-03-22T22:43:46;99150.81;;;13.10;44.35
69796;BME280;57073;45.650;9.612;2023-03-22T22:48:47;99148.50;;;12.97;45.14
69796;BME280;57073;45.650;9.612;2023-03-22T22:53:48;99155.50;;;12.93;45.56
69796;BME280;57073;45.650;9.612;2023-03-22T22:58:48;99149.97;;;12.82;46.44
69796;BME280;57073;45.650;9.612;2023-03-22T23:03:49;99149.72;;;12.34;47.94
69796;BME280;57073;45.650;9.612;2023-03-22T23:08:50;99144.47;;;12.28;47.44
69796;BME280;57073;45.650;9.612;2023-03-22T23:13:54;99142.03;;;12.26;46.40
69796;BME280;57073;45.650;9.612;2023-03-22T23:18:57;99139.84;;;12.01;47.00
69796;BME280;57073;45.650;9.612;2023-03-22T23:24:01;99137.06;;;11.96;47.38
69796;BME280;57073;45.650;9.612;2023-03-22T23:29:01;99138.25;;;12.27;46.69
69796;BME280;57073;45.650;9.612;2023-03-22T23:34:02;99145.81;;;11.86;47.76
69796;BME280;57073;45.650;9.612;2023-03-22T23:39:03;99140.53;;;11.74;47.02
69796;BME280;57073;45.650;9.612;2023-03-22T23:44:04;99130.72;;;11.68;47.03
69796;BME280;57073;45.650;9.612;2023-03-22T23:49:04;99127.22;;;11.90;46.82
69796;BME280;57073;45.650;9.612;2023-03-22T23:54:06;99124.59;;;11.95;47.21
69796;BME280;57073;45.650;9.612;2023-03-22T23:59:06;99131.72;;;12.01;46.88
